sensor_id;sensor_type;location;lat;lon;timestamp;P1;durP1;ratioP1;P2;durP2;ratioP2
32214;SDS011;18708;53.124;23.190;2024-03-02T00:00:10;20.20;;;13.27;;
32214;SDS011;18708;53.124;23.190;2024-03-02T00:02:41;20.63;;;11.95;;
32214;SDS011;18708;53.124;23.190;2024-03-02T00:05:14;21.27;;;12.30;;
32214;SDS011;18708;53.124;23.190;2024-03-02T00:07:45;18.33;;;11.15;;
32214;SDS011;18708;53.124;23.190;2024-03-02T00:10:31;25.90;;;12.68;;
32214;SDS011;18708;53.124;23.190;2024-03-02T00:13:07;19.80;;;12.27;;
32214;SDS011;18708;53.124;23.190;2024-03-02T00:15:47;23.40;;;12.10;;
32214;SDS011;18708;53.124;23.190;2024-03-02T00:18:26;21.33;;;13.35;;
32214;SDS011;18708;53.124;23.190;2024-03-02T00:20:56;23.70;;;11.98;;
32214;SDS011;18708;53.124;23.190;2024-03-02T00:23:23;20.80;;;12.85;;
32214;SDS011;18708;53.124;23.190;2024-03-02T00:25:50;21.65;;;13.35;;
32214;SDS011;18708;53.124;23.190;2024-03-02T00:28:24;23.27;;;12.68;;
32214;SDS011;18708;53.124;23.190;2024-03-02T00:33:36;25.13;;;12.67;;
32214;SDS011;18708;53.124;23.190;2024-03-02T00:36:06;19.63;;;12.80;;
32214;SDS011;18708;53.124;23.190;2024-03-02T00:38:33;25.73;;;13.00;;
32214;SDS011;18708;53.124;23.190;2024-03-02T00:41:05;22.65;;;12.18;;
32214;SDS011;18708;53.124;23.190;2024-03-02T00:43:45;25.50;;;12.40;;
32214;SDS011;18708;53.124;23.190;2024-03-02T00:46:30;20.95;;;11.60;;
32214;SDS011;18708;53.124;23.190;2024-03-02T00:51:36;22.83;;;12.35;;
32214;SDS011;18708;53.124;23.190;2024-03-02T00:54:04;24.67;;;14.00;;
32214;SDS011;18708;53.124;23.190;2024-03-02T00:56:31;24.70;;;12.95;;
32214;SDS011;18708;53.124;23.190;2024-03-02T00:58:58;24.30;;;12.25;;
32214;SDS011;18708;53.124;23.190;2024-03-02T01:01:23;21.60;;;13.02;;
32214;SDS011;18708;53.124;23.190;2024-03-02T01:03:49;26.70;;;13.90;;
32214;SDS011;18708;53.124;23.190;2024-03-02T01:06:15;20.45;;;13.73;;
32214;SDS011;18708;53.124;23.190;2024-03-02T01:08:41;22.05;;;12.75;;
32214;SDS011;18708;53.124;23.190;2024-03-02T01:11:07;24.20;;;13.02;;
32214;SDS011;18708;53.124;23.190;2024-03-02T01:13:33;23.83;;;13.27;;
32214;SDS011;18708;53.124;23.190;2024-03-02T01:15:59;21.58;;;12.32;;
32214;SDS011;18708;53.124;23.190;2024-03-02T01:18:25;20.25;;;12.63;;
32214;SDS011;18708;53.124;23.190;2024-03-02T01:20:50;24.77;;;14.30;;
32214;SDS011;18708;53.124;23.190;2024-03-02T01:23:20;26.60;;;13.38;;
32214;SDS011;18708;53.124;23.190;2024-03-02T01:25:48;23.58;;;13.23;;
32214;SDS011;18708;53.124;23.190;2024-03-02T01:28:15;23.50;;;12.40;;
32214;SDS011;18708;53.124;23.190;2024-03-02T01:30:41;27.35;;;13.77;;
32214;SDS011;18708;53.124;23.190;2024-03-02T01:33:06;21.92;;;12.27;;
32214;SDS011;18708;53.124;23.190;2024-03-02T01:35:32;22.65;;;14.15;;
32214;SDS011;18708;53.124;23.190;2024-03-02T01:37:59;21.67;;;14.75;;
32214;SDS011;18708;53.124;23.190;2024-03-02T01:40:25;26.33;;;13.75;;
32214;SDS011;18708;53.124;23.190;2024-03-02T01:42:51;25.73;;;13.95;;
32214;SDS011;18708;53.124;23.190;2024-03-02T01:45:19;25.40;;;14.25;;
32214;SDS011;18708;53.124;23.190;2024-03-02T01:47:47;24.17;;;13.27;;
32214;SDS011;18708;53.124;23.190;2024-03-02T01:50:13;24.40;;;13.55;;
32214;SDS011;18708;53.124;23.190;2024-03-02T01:52:39;25.08;;;14.85;;
32214;SDS011;18708;53.124;23.190;2024-03-02T01:55:05;22.70;;;12.70;;
32214;SDS011;18708;53.124;23.190;2024-03-02T01:57:32;24.15;;;14.02;;
32214;SDS011;18708;53.124;23.190;2024-03-02T01:59:59;25.35;;;14.35;;
32214;SDS011;18708;53.124;23.190;2024-03-02T02:02:25;25.30;;;15.23;;
32214;SDS011;18708;53.124;23.190;2024-03-02T02:04:51;25.38;;;14.82;;
32214;SDS011;18708;53.124;23.190;2024-03-02T02:07:17;26.63;;;13.77;;
32214;SDS011;18708;53.124;23.190;2024-03-02T02:09:43;24.50;;;14.95;;
32214;SDS011;18708;53.124;23.190;2024-03-02T02:12:11;24.13;;;14.70;;
32214;SDS011;18708;53.124;23.190;2024-03-02T02:14:37;22.35;;;14.32;;
32214;SDS011;18708;53.124;23.190;2024-03-02T02:17:05;22.17;;;14.35;;
32214;SDS011;18708;53.124;23.190;2024-03-02T02:19:30;26.80;;;14.35;;
32214;SDS011;18708;53.124;23.190;2024-03-02T02:21:56;26.50;;;13.75;;
32214;SDS011;18708;53.124;23.190;2024-03-02T02:24:22;26.42;;;14.95;;
32214;SDS011;18708;53.124;23.190;2024-03-02T02:26:47;22.67;;;14.98;;
32214;SDS011;18708;53.124;23.190;2024-03-02T02:29:13;32.47;;;16.85;;
32214;SDS011;18708;53.124;23.190;2024-03-02T02:31:39;25.42;;;14.90;;
32214;SDS011;18708;53.124;23.190;2024-03-02T02:34:06;30.23;;;15.45;;
32214;SDS011;18708;53.124;23.190;2024-03-02T02:36:32;26.98;;;16.10;;
32214;SDS011;18708;53.124;23.190;2024-03-02T02:38:59;26.00;;;16.23;;
32214;SDS011;18708;53.124;23.190;2024-03-02T02:41:28;29.70;;;16.52;;
32214;SDS011;18708;53.124;23.190;2024-03-02T02:43:54;29.52;;;15.43;;
32214;SDS011;18708;53.124;23.190;2024-03-02T02:46:20;26.38;;;15.23;;
32214;SDS011;18708;53.124;23.190;2024-03-02T02:48:46;34.13;;;16.42;;
32214;SDS011;18708;53.124;23.190;2024-03-02T02:51:12;28.02;;;16.85;;
32214;SDS011;18708;53.124;23.190;2024-03-02T02:53:37;24.42;;;15.88;;
32214;SDS011;18708;53.124;23.190;2024-03-02T02:56:06;25.48;;;15.13;;
32214;SDS011;18708;53.124;23.190;2024-03-02T02:58:31;30.85;;;17.85;;
32214;SDS011;18708;53.124;23.190;2024-03-02T03:00:57;30.98;;;16.88;;
32214;SDS011;18708;53.124;23.190;2024-03-02T03:03:23;36.22;;;16.83;;
32214;SDS011;18708;53.124;23.190;2024-03-02T03:05:49;28.95;;;16.38;;
32214;SDS011;18708;53.124;23.190;2024-03-02T03:08:14;27.75;;;15.68;;
32214;SDS011;18708;53.124;23.190;2024-03-02T03:10:41;30.05;;;17.15;;
32214;SDS011;18708;53.124;23.190;2024-03-02T03:13:07;32.13;;;17.65;;
32214;SDS011;18708;53.124;23.190;2024-03-02T03:15:36;24.27;;;15.38;;
32214;SDS011;18708;53.124;23.190;2024-03-02T03:18:05;27.33;;;16.70;;
32214;SDS011;18708;53.124;23.190;2024-03-02T03:20:32;28.75;;;17.23;;
32214;SDS011;18708;53.124;23.190;2024-03-02T03:22:59;26.50;;;16.50;;
32214;SDS011;18708;53.124;23.190;2024-03-02T03:25:25;27.58;;;16.75;;
32214;SDS011;18708;53.124;23.190;2024-03-02T03:27:51;29.58;;;17.25;;
32214;SDS011;18708;53.124;23.190;2024-03-02T03:30:19;27.20;;;16.27;;
32214;SDS011;18708;53.124;23.190;2024-03-02T03:32:45;29.98;;;16.88;;
32214;SDS011;18708;53.124;23.190;2024-03-02T03:35:10;28.77;;;17.75;;
32214;SDS011;18708;53.124;23.190;2024-03-02T03:37:38;29.88;;;17.20;;
32214;SDS011;18708;53.124;23.190;2024-03-02T03:40:04;32.90;;;17.75;;
32214;SDS011;18708;53.124;23.190;2024-03-02T03:42:36;30.75;;;17.08;;
32214;SDS011;18708;53.124;23.190;2024-03-02T03:45:03;27.40;;;18.45;;
32214;SDS011;18708;53.124;23.190;2024-03-02T03:47:30;32.08;;;17.90;;
32214;SDS011;18708;53.124;23.190;2024-03-02T03:49:56;33.97;;;18.25;;
32214;SDS011;18708;53.124;23.190;2024-03-02T03:52:22;35.03;;;19.00;;
32214;SDS011;18708;53.124;23.190;2024-03-02T03:54:48;28.52;;;19.08;;
32214;SDS011;18708;53.124;23.190;2024-03-02T03:57:14;31.92;;;19.75;;
32214;SDS011;18708;53.124;23.190;2024-03-02T03:59:41;34.65;;;20.10;;
32214;SDS011;18708;53.124;23.190;2024-03-02T04:02:07;33.20;;;19.83;;
32214;SDS011;18708;53.124;23.190;2024-03-02T04:04:33;35.55;;;18.98;;
32214;SDS011;18708;53.124;23.190;2024-03-02T04:07:00;34.15;;;19.05;;
32214;SDS011;18708;53.124;23.190;2024-03-02T04:09:26;33.03;;;19.13;;
32214;SDS011;18708;53.124;23.190;2024-03-02T04:11:52;32.67;;;18.45;;
32214;SDS011;18708;53.124;23.190;2024-03-02T04:14:18;35.00;;;20.88;;
32214;SDS011;18708;53.124;23.190;2024-03-02T04:16:44;37.42;;;19.40;;
32214;SDS011;18708;53.124;23.190;2024-03-02T04:19:09;37.50;;;20.25;;
32214;SDS011;18708;53.124;23.190;2024-03-02T04:21:35;35.50;;;20.63;;
32214;SDS011;18708;53.124;23.190;2024-03-02T04:24:01;40.97;;;21.88;;
32214;SDS011;18708;53.124;23.190;2024-03-02T04:26:26;36.13;;;19.58;;
32214;SDS011;18708;53.124;23.190;2024-03-02T04:28:52;37.42;;;21.70;;
32214;SDS011;18708;53.124;23.190;2024-03-02T04:31:19;37.00;;;20.67;;
32214;SDS011;18708;53.124;23.190;2024-03-02T04:33:45;40.15;;;21.10;;
32214;SDS011;18708;53.124;23.190;2024-03-02T04:36:11;37.50;;;20.33;;
32214;SDS011;18708;53.124;23.190;2024-03-02T04:38:37;40.47;;;21.35;;
32214;SDS011;18708;53.124;23.190;2024-03-02T04:41:04;36.42;;;22.80;;
32214;SDS011;18708;53.124;23.190;2024-03-02T04:43:33;37.38;;;20.58;;
32214;SDS011;18708;53.124;23.190;2024-03-02T04:45:59;38.50;;;22.77;;
32214;SDS011;18708;53.124;23.190;2024-03-02T04:48:25;31.15;;;20.25;;
32214;SDS011;18708;53.124;23.190;2024-03-02T04:50:51;37.08;;;21.40;;
32214;SDS011;18708;53.124;23.190;2024-03-02T04:53:17;38.80;;;22.63;;
32214;SDS011;18708;53.124;23.190;2024-03-02T04:55:43;36.70;;;21.92;;
32214;SDS011;18708;53.124;23.190;2024-03-02T04:58:08;38.03;;;21.13;;
32214;SDS011;18708;53.124;23.190;2024-03-02T05:00:34;41.28;;;21.40;;
32214;SDS011;18708;53.124;23.190;2024-03-02T05:03:00;36.22;;;21.38;;
32214;SDS011;18708;53.124;23.190;2024-03-02T05:05:26;40.75;;;21.50;;
32214;SDS011;18708;53.124;23.190;2024-03-02T05:07:52;38.85;;;22.05;;
32214;SDS011;18708;53.124;23.190;2024-03-02T05:10:18;40.80;;;21.80;;
32214;SDS011;18708;53.124;23.190;2024-03-02T05:12:43;38.58;;;22.75;;
32214;SDS011;18708;53.124;23.190;2024-03-02T05:15:09;36.65;;;21.75;;
32214;SDS011;18708;53.124;23.190;2024-03-02T05:17:36;40.55;;;23.67;;
32214;SDS011;18708;53.124;23.190;2024-03-02T05:20:03;42.42;;;23.45;;
32214;SDS011;18708;53.124;23.190;2024-03-02T05:22:30;37.17;;;23.30;;
32214;SDS011;18708;53.124;23.190;2024-03-02T05:24:55;40.67;;;22.38;;
32214;SDS011;18708;53.124;23.190;2024-03-02T05:27:24;42.92;;;25.25;;
32214;SDS011;18708;53.124;23.190;2024-03-02T05:29:50;43.88;;;27.85;;
32214;SDS011;18708;53.124;23.190;2024-03-02T05:32:18;39.95;;;23.85;;
32214;SDS011;18708;53.124;23.190;2024-03-02T05:34:44;43.00;;;23.00;;
32214;SDS011;18708;53.124;23.190;2024-03-02T05:37:10;45.03;;;25.30;;
32214;SDS011;18708;53.124;23.190;2024-03-02T05:39:38;45.78;;;23.95;;
32214;SDS011;18708;53.124;23.190;2024-03-02T05:42:03;38.58;;;24.05;;
32214;SDS011;18708;53.124;23.190;2024-03-02T05:44:29;45.30;;;24.05;;
32214;SDS011;18708;53.124;23.190;2024-03-02T05:46:55;46.53;;;24.80;;
32214;SDS011;18708;53.124;23.190;2024-03-02T05:49:21;41.85;;;23.83;;
32214;SDS011;18708;53.124;23.190;2024-03-02T05:51:47;45.55;;;25.42;;
32214;SDS011;18708;53.124;23.190;2024-03-02T05:54:12;43.97;;;23.83;;
32214;SDS011;18708;53.124;23.190;2024-03-02T05:56:38;42.03;;;26.15;;
32214;SDS011;18708;53.124;23.190;2024-03-02T05:59:06;39.17;;;22.17;;
32214;SDS011;18708;53.124;23.190;2024-03-02T06:01:39;42.42;;;25.33;;
32214;SDS011;18708;53.124;23.190;2024-03-02T06:04:05;39.83;;;23.20;;
32214;SDS011;18708;53.124;23.190;2024-03-02T06:06:31;46.28;;;24.40;;
32214;SDS011;18708;53.124;23.190;2024-03-02T06:08:59;41.30;;;23.42;;
32214;SDS011;18708;53.124;23.190;2024-03-02T06:11:32;49.50;;;24.80;;
32214;SDS011;18708;53.124;23.190;2024-03-02T06:14:04;42.22;;;22.10;;
32214;SDS011;18708;53.124;23.190;2024-03-02T06:16:30;49.35;;;24.95;;
32214;SDS011;18708;53.124;23.190;2024-03-02T06:18:56;47.08;;;25.38;;
32214;SDS011;18708;53.124;23.190;2024-03-02T06:21:26;43.75;;;25.52;;
32214;SDS011;18708;53.124;23.190;2024-03-02T06:23:52;42.75;;;23.63;;
32214;SDS011;18708;53.124;23.190;2024-03-02T06:26:18;45.03;;;24.40;;
32214;SDS011;18708;53.124;23.190;2024-03-02T06:28:44;44.88;;;26.08;;
32214;SDS011;18708;53.124;23.190;2024-03-02T06:31:11;42.70;;;23.98;;
32214;SDS011;18708;53.124;23.190;2024-03-02T06:33:36;43.60;;;25.30;;
32214;SDS011;18708;53.124;23.190;2024-03-02T06:36:03;39.13;;;25.65;;
32214;SDS011;18708;53.124;23.190;2024-03-02T06:38:29;41.45;;;23.48;;
32214;SDS011;18708;53.124;23.190;2024-03-02T06:40:57;48.90;;;24.52;;
32214;SDS011;18708;53.124;23.190;2024-03-02T06:43:22;47.88;;;24.60;;
32214;SDS011;18708;53.124;23.190;2024-03-02T06:45:51;43.83;;;26.27;;
32214;SDS011;18708;53.124;23.190;2024-03-02T06:48:17;44.03;;;24.63;;
32214;SDS011;18708;53.124;23.190;2024-03-02T06:50:48;43.42;;;26.40;;
32214;SDS011;18708;53.124;23.190;2024-03-02T06:53:14;44.53;;;25.00;;
32214;SDS011;18708;53.124;23.190;2024-03-02T06:55:44;48.60;;;25.33;;
32214;SDS011;18708;53.124;23.190;2024-03-02T06:58:14;53.22;;;25.33;;
32214;SDS011;18708;53.124;23.190;2024-03-02T07:00:43;47.47;;;25.73;;
32214;SDS011;18708;53.124;23.190;2024-03-02T07:03:12;46.92;;;25.00;;
32214;SDS011;18708;53.124;23.190;2024-03-02T07:05:38;48.97;;;27.23;;
32214;SDS011;18708;53.124;23.190;2024-03-02T07:08:04;45.33;;;26.40;;
32214;SDS011;18708;53.124;23.190;2024-03-02T07:10:31;41.42;;;24.08;;
32214;SDS011;18708;53.124;23.190;2024-03-02T07:12:56;45.90;;;26.08;;
32214;SDS011;18708;53.124;23.190;2024-03-02T07:15:22;47.38;;;24.98;;
32214;SDS011;18708;53.124;23.190;2024-03-02T07:18:04;48.33;;;27.35;;
32214;SDS011;18708;53.124;23.190;2024-03-02T07:20:30;46.58;;;27.25;;
32214;SDS011;18708;53.124;23.190;2024-03-02T07:22:55;43.42;;;26.15;;
32214;SDS011;18708;53.124;23.190;2024-03-02T07:25:21;47.50;;;27.00;;
32214;SDS011;18708;53.124;23.190;2024-03-02T07:27:47;42.70;;;24.92;;
32214;SDS011;18708;53.124;23.190;2024-03-02T07:30:16;46.17;;;25.50;;
32214;SDS011;18708;53.124;23.190;2024-03-02T07:32:41;47.22;;;24.27;;
32214;SDS011;18708;53.124;23.190;2024-03-02T07:35:10;45.28;;;25.55;;
32214;SDS011;18708;53.124;23.190;2024-03-02T07:37:39;42.45;;;24.40;;
32214;SDS011;18708;53.124;23.190;2024-03-02T07:40:06;42.50;;;24.00;;
32214;SDS011;18708;53.124;23.190;2024-03-02T07:42:36;43.08;;;25.05;;
32214;SDS011;18708;53.124;23.190;2024-03-02T07:45:03;44.03;;;24.77;;
32214;SDS011;18708;53.124;23.190;2024-03-02T07:47:30;43.33;;;22.92;;
32214;SDS011;18708;53.124;23.190;2024-03-02T07:49:55;44.08;;;23.75;;
32214;SDS011;18708;53.124;23.190;2024-03-02T07:52:21;44.53;;;23.55;;
32214;SDS011;18708;53.124;23.190;2024-03-02T07:54:47;42.45;;;22.83;;
32214;SDS011;18708;53.124;23.190;2024-03-02T07:57:12;38.72;;;23.35;;
32214;SDS011;18708;53.124;23.190;2024-03-02T07:59:38;36.28;;;23.05;;
32214;SDS011;18708;53.124;23.190;2024-03-02T08:02:04;47.13;;;24.83;;
32214;SDS011;18708;53.124;23.190;2024-03-02T08:04:29;40.33;;;23.33;;
32214;SDS011;18708;53.124;23.190;2024-03-02T08:06:55;44.13;;;24.92;;
32214;SDS011;18708;53.124;23.190;2024-03-02T08:09:21;37.47;;;20.55;;
32214;SDS011;18708;53.124;23.190;2024-03-02T08:11:47;37.65;;;21.58;;
32214;SDS011;18708;53.124;23.190;2024-03-02T08:14:13;37.88;;;22.63;;
32214;SDS011;18708;53.124;23.190;2024-03-02T08:16:38;40.88;;;21.92;;
32214;SDS011;18708;53.124;23.190;2024-03-02T08:19:05;37.67;;;21.75;;
32214;SDS011;18708;53.124;23.190;2024-03-02T08:21:30;35.83;;;20.67;;
32214;SDS011;18708;53.124;23.190;2024-03-02T08:23:57;48.28;;;26.70;;
32214;SDS011;18708;53.124;23.190;2024-03-02T08:26:23;35.83;;;21.40;;
32214;SDS011;18708;53.124;23.190;2024-03-02T08:28:49;39.40;;;21.48;;
32214;SDS011;18708;53.124;23.190;2024-03-02T08:31:15;34.70;;;21.38;;
32214;SDS011;18708;53.124;23.190;2024-03-02T08:33:40;38.80;;;20.73;;
32214;SDS011;18708;53.124;23.190;2024-03-02T08:36:07;30.77;;;20.23;;
32214;SDS011;18708;53.124;23.190;2024-03-02T08:38:34;30.63;;;20.48;;
32214;SDS011;18708;53.124;23.190;2024-03-02T08:41:00;35.00;;;20.75;;
32214;SDS011;18708;53.124;23.190;2024-03-02T08:43:26;34.35;;;20.38;;
32214;SDS011;18708;53.124;23.190;2024-03-02T08:45:52;40.53;;;20.63;;
32214;SDS011;18708;53.124;23.190;2024-03-02T08:48:17;38.83;;;20.13;;
32214;SDS011;18708;53.124;23.190;2024-03-02T08:50:46;35.45;;;19.95;;
32214;SDS011;18708;53.124;23.190;2024-03-02T08:53:11;33.22;;;19.90;;
32214;SDS011;18708;53.124;23.190;2024-03-02T08:55:37;34.17;;;20.38;;
32214;SDS011;18708;53.124;23.190;2024-03-02T08:58:03;45.25;;;20.67;;
32214;SDS011;18708;53.124;23.190;2024-03-02T09:00:29;34.35;;;19.98;;
32214;SDS011;18708;53.124;23.190;2024-03-02T09:02:55;32.35;;;20.25;;
32214;SDS011;18708;53.124;23.190;2024-03-02T09:05:20;35.08;;;19.63;;
32214;SDS011;18708;53.124;23.190;2024-03-02T09:07:46;37.72;;;20.23;;
32214;SDS011;18708;53.124;23.190;2024-03-02T09:10:12;37.63;;;20.23;;
32214;SDS011;18708;53.124;23.190;2024-03-02T09:12:37;34.45;;;20.08;;
32214;SDS011;18708;53.124;23.190;2024-03-02T09:15:04;36.50;;;19.27;;
32214;SDS011;18708;53.124;23.190;2024-03-02T09:17:31;32.28;;;19.58;;
32214;SDS011;18708;53.124;23.190;2024-03-02T09:19:57;34.78;;;20.23;;
32214;SDS011;18708;53.124;23.190;2024-03-02T09:22:22;39.17;;;21.63;;
32214;SDS011;18708;53.124;23.190;2024-03-02T09:24:48;36.75;;;19.73;;
32214;SDS011;18708;53.124;23.190;2024-03-02T09:27:14;37.85;;;20.00;;
32214;SDS011;18708;53.124;23.190;2024-03-02T09:29:39;34.63;;;20.00;;
32214;SDS011;18708;53.124;23.190;2024-03-02T09:32:05;35.20;;;19.63;;
32214;SDS011;18708;53.124;23.190;2024-03-02T09:34:32;33.08;;;20.05;;
32214;SDS011;18708;53.124;23.190;2024-03-02T09:36:58;35.65;;;19.20;;
32214;SDS011;18708;53.124;23.190;2024-03-02T09:39:24;38.08;;;22.13;;
32214;SDS011;18708;53.124;23.190;2024-03-02T09:41:52;37.83;;;22.13;;
32214;SDS011;18708;53.124;23.190;2024-03-02T09:44:19;52.10;;;28.35;;
32214;SDS011;18708;53.124;23.190;2024-03-02T09:46:48;32.50;;;19.85;;
32214;SDS011;18708;53.124;23.190;2024-03-02T09:49:14;34.17;;;20.00;;
32214;SDS011;18708;53.124;23.190;2024-03-02T09:51:40;30.77;;;19.90;;
32214;SDS011;18708;53.124;23.190;2024-03-02T09:54:11;28.95;;;18.27;;
32214;SDS011;18708;53.124;23.190;2024-03-02T09:56:37;30.60;;;18.77;;
32214;SDS011;18708;53.124;23.190;2024-03-02T09:59:03;29.70;;;18.85;;
32214;SDS011;18708;53.124;23.190;2024-03-02T10:01:30;31.80;;;18.52;;
32214;SDS011;18708;53.124;23.190;2024-03-02T10:03:57;29.90;;;18.60;;
32214;SDS011;18708;53.124;23.190;2024-03-02T10:06:29;33.00;;;18.63;;
32214;SDS011;18708;53.124;23.190;2024-03-02T10:08:55;32.47;;;18.63;;
32214;SDS011;18708;53.124;23.190;2024-03-02T10:11:28;28.45;;;17.95;;
32214;SDS011;18708;53.124;23.190;2024-03-02T10:14:09;35.42;;;19.05;;
32214;SDS011;18708;53.124;23.190;2024-03-02T10:16:45;31.83;;;19.50;;
32214;SDS011;18708;53.124;23.190;2024-03-02T10:19:15;30.95;;;18.65;;
32214;SDS011;18708;53.124;23.190;2024-03-02T10:21:51;33.15;;;19.67;;
32214;SDS011;18708;53.124;23.190;2024-03-02T10:24:18;33.80;;;18.67;;
32214;SDS011;18708;53.124;23.190;2024-03-02T10:26:45;33.08;;;18.88;;
32214;SDS011;18708;53.124;23.190;2024-03-02T10:29:10;27.48;;;18.20;;
32214;SDS011;18708;53.124;23.190;2024-03-02T10:31:37;30.02;;;18.35;;
32214;SDS011;18708;53.124;23.190;2024-03-02T10:34:04;31.67;;;19.05;;
32214;SDS011;18708;53.124;23.190;2024-03-02T10:36:31;35.85;;;18.83;;
32214;SDS011;18708;53.124;23.190;2024-03-02T10:39:04;29.52;;;18.45;;
32214;SDS011;18708;53.124;23.190;2024-03-02T10:41:32;27.38;;;16.92;;
32214;SDS011;18708;53.124;23.190;2024-03-02T10:43:59;29.10;;;17.38;;
32214;SDS011;18708;53.124;23.190;2024-03-02T10:46:32;30.35;;;17.80;;
32214;SDS011;18708;53.124;23.190;2024-03-02T10:48:59;25.27;;;15.93;;
32214;SDS011;18708;53.124;23.190;2024-03-02T10:51:26;49.95;;;28.08;;
32214;SDS011;18708;53.124;23.190;2024-03-02T10:53:56;32.33;;;20.35;;
32214;SDS011;18708;53.124;23.190;2024-03-02T10:56:32;28.15;;;17.58;;
32214;SDS011;18708;53.124;23.190;2024-03-02T11:02:00;28.27;;;18.30;;
32214;SDS011;18708;53.124;23.190;2024-03-02T11:04:29;27.80;;;17.52;;
32214;SDS011;18708;53.124;23.190;2024-03-02T11:06:58;29.60;;;17.00;;
32214;SDS011;18708;53.124;23.190;2024-03-02T11:09:29;33.83;;;17.08;;
32214;SDS011;18708;53.124;23.190;2024-03-02T11:12:19;25.58;;;17.25;;
32214;SDS011;18708;53.124;23.190;2024-03-02T11:14:47;32.40;;;19.42;;
32214;SDS011;18708;53.124;23.190;2024-03-02T11:17:15;34.97;;;18.42;;
32214;SDS011;18708;53.124;23.190;2024-03-02T11:19:42;30.00;;;18.13;;
32214;SDS011;18708;53.124;23.190;2024-03-02T11:22:09;34.03;;;19.90;;
32214;SDS011;18708;53.124;23.190;2024-03-02T11:24:36;31.75;;;20.58;;
32214;SDS011;18708;53.124;23.190;2024-03-02T11:27:03;33.20;;;19.40;;
32214;SDS011;18708;53.124;23.190;2024-03-02T11:32:12;35.38;;;19.25;;
32214;SDS011;18708;53.124;23.190;2024-03-02T11:34:43;33.85;;;18.85;;
32214;SDS011;18708;53.124;23.190;2024-03-02T11:37:11;26.42;;;18.73;;
32214;SDS011;18708;53.124;23.190;2024-03-02T11:39:39;28.52;;;17.85;;
32214;SDS011;18708;53.124;23.190;2024-03-02T11:42:07;31.20;;;19.25;;
32214;SDS011;18708;53.124;23.190;2024-03-02T11:44:35;31.05;;;17.77;;
32214;SDS011;18708;53.124;23.190;2024-03-02T11:47:07;29.83;;;18.52;;
32214;SDS011;18708;53.124;23.190;2024-03-02T11:49:36;32.00;;;18.23;;
32214;SDS011;18708;53.124;23.190;2024-03-02T11:52:06;30.65;;;18.25;;
32214;SDS011;18708;53.124;23.190;2024-03-02T11:54:34;28.90;;;17.92;;
32214;SDS011;18708;53.124;23.190;2024-03-02T11:57:04;30.73;;;18.00;;
32214;SDS011;18708;53.124;23.190;2024-03-02T11:59:31;31.85;;;18.38;;
32214;SDS011;18708;53.124;23.190;2024-03-02T12:01:57;32.42;;;19.33;;
32214;SDS011;18708;53.124;23.190;2024-03-02T12:04:24;31.05;;;19.05;;
32214;SDS011;18708;53.124;23.190;2024-03-02T12:06:54;30.85;;;18.15;;
32214;SDS011;18708;53.124;23.190;2024-03-02T12:09:24;29.02;;;18.33;;
32214;SDS011;18708;53.124;23.190;2024-03-02T12:14:30;34.13;;;17.55;;
32214;SDS011;18708;53.124;23.190;2024-03-02T12:16:57;27.50;;;16.13;;
32214;SDS011;18708;53.124;23.190;2024-03-02T12:19:24;27.67;;;16.73;;
32214;SDS011;18708;53.124;23.190;2024-03-02T12:22:03;30.63;;;16.58;;
32214;SDS011;18708;53.124;23.190;2024-03-02T12:24:31;25.08;;;16.67;;
32214;SDS011;18708;53.124;23.190;2024-03-02T12:26:57;35.28;;;17.55;;
32214;SDS011;18708;53.124;23.190;2024-03-02T12:29:23;28.17;;;17.88;;
32214;SDS011;18708;53.124;23.190;2024-03-02T12:31:50;29.23;;;16.02;;
32214;SDS011;18708;53.124;23.190;2024-03-02T12:34:19;30.13;;;17.38;;
32214;SDS011;18708;53.124;23.190;2024-03-02T12:36:46;26.98;;;17.52;;
32214;SDS011;18708;53.124;23.190;2024-03-02T12:39:17;29.70;;;17.65;;
32214;SDS011;18708;53.124;23.190;2024-03-02T12:41:44;28.00;;;16.60;;
32214;SDS011;18708;53.124;23.190;2024-03-02T12:44:11;30.23;;;16.35;;
32214;SDS011;18708;53.124;23.190;2024-03-02T12:46:37;29.98;;;16.13;;
32214;SDS011;18708;53.124;23.190;2024-03-02T12:49:09;161.85;;;24.67;;
32214;SDS011;18708;53.124;23.190;2024-03-02T12:51:40;29.05;;;16.52;;
32214;SDS011;18708;53.124;23.190;2024-03-02T12:54:09;28.58;;;16.20;;
32214;SDS011;18708;53.124;23.190;2024-03-02T12:56:40;31.77;;;16.30;;
32214;SDS011;18708;53.124;23.190;2024-03-02T12:59:10;30.30;;;16.70;;
32214;SDS011;18708;53.124;23.190;2024-03-02T13:01:53;27.52;;;15.93;;
32214;SDS011;18708;53.124;23.190;2024-03-02T13:04:26;30.55;;;16.55;;
32214;SDS011;18708;53.124;23.190;2024-03-02T13:06:56;29.77;;;16.33;;
32214;SDS011;18708;53.124;23.190;2024-03-02T13:09:25;26.48;;;16.80;;
32214;SDS011;18708;53.124;23.190;2024-03-02T13:11:51;27.67;;;16.98;;
32214;SDS011;18708;53.124;23.190;2024-03-02T13:14:17;21.15;;;15.02;;
32214;SDS011;18708;53.124;23.190;2024-03-02T13:16:44;26.58;;;15.25;;
32214;SDS011;18708;53.124;23.190;2024-03-02T13:19:13;32.72;;;16.33;;
32214;SDS011;18708;53.124;23.190;2024-03-02T13:21:39;24.40;;;15.60;;
32214;SDS011;18708;53.124;23.190;2024-03-02T13:24:05;23.52;;;15.73;;
32214;SDS011;18708;53.124;23.190;2024-03-02T13:26:31;21.52;;;13.75;;
32214;SDS011;18708;53.124;23.190;2024-03-02T13:28:57;24.25;;;14.95;;
32214;SDS011;18708;53.124;23.190;2024-03-02T13:31:23;27.83;;;14.82;;
32214;SDS011;18708;53.124;23.190;2024-03-02T13:33:48;29.58;;;17.48;;
32214;SDS011;18708;53.124;23.190;2024-03-02T13:36:14;26.90;;;15.85;;
32214;SDS011;18708;53.124;23.190;2024-03-02T13:38:40;27.17;;;17.90;;
32214;SDS011;18708;53.124;23.190;2024-03-02T13:41:05;36.50;;;21.85;;
32214;SDS011;18708;53.124;23.190;2024-03-02T13:43:31;32.92;;;21.10;;
32214;SDS011;18708;53.124;23.190;2024-03-02T13:46:00;29.67;;;15.60;;
32214;SDS011;18708;53.124;23.190;2024-03-02T13:48:26;29.35;;;16.10;;
32214;SDS011;18708;53.124;23.190;2024-03-02T13:50:52;34.88;;;18.63;;
32214;SDS011;18708;53.124;23.190;2024-03-02T13:53:18;28.52;;;17.50;;
32214;SDS011;18708;53.124;23.190;2024-03-02T13:55:44;31.45;;;18.10;;
32214;SDS011;18708;53.124;23.190;2024-03-02T13:58:10;23.17;;;15.40;;
32214;SDS011;18708;53.124;23.190;2024-03-02T14:00:38;27.15;;;15.63;;
32214;SDS011;18708;53.124;23.190;2024-03-02T14:03:07;26.88;;;14.35;;
32214;SDS011;18708;53.124;23.190;2024-03-02T14:05:32;25.30;;;15.20;;
32214;SDS011;18708;53.124;23.190;2024-03-02T14:07:59;27.55;;;14.32;;
32214;SDS011;18708;53.124;23.190;2024-03-02T14:10:29;28.20;;;17.17;;
32214;SDS011;18708;53.124;23.190;2024-03-02T14:12:54;29.67;;;19.55;;
32214;SDS011;18708;53.124;23.190;2024-03-02T14:15:20;33.75;;;20.38;;
32214;SDS011;18708;53.124;23.190;2024-03-02T14:17:47;25.73;;;15.55;;
32214;SDS011;18708;53.124;23.190;2024-03-02T14:20:12;26.65;;;16.17;;
32214;SDS011;18708;53.124;23.190;2024-03-02T14:22:38;31.25;;;18.60;;